This is the latest recevied weather packets stored in our database for station/object SQ9IWE-13. If no packets are shown the sender has not sent any weather packets the latest 10 day(s).
| Time | Temp. | Humidity | Pressure | Rain* | Wind** | Luminosity | Snow |
|---|---|---|---|---|---|---|---|
| 1777171801 | 7.78° C | 59% | 1012.4 hPa | - | - | - | - |
| 1777171201 | 7.78° C | 59% | 1012 hPa | - | - | - | - |
| 1777170601 | 8.33° C | 59% | 1011.8 hPa | - | - | - | - |
| 1777170001 | 8.89° C | 58% | 1011.2 hPa | - | - | - | - |
| 1777169400 | 9.44° C | 60% | 1011 hPa | - | - | - | - |
| 1777168801 | 9.44° C | 60% | 1010.6 hPa | - | - | - | - |
| 1777168200 | 10° C | 61% | 1010.5 hPa | - | - | - | - |
| 1777167000 | 11.11° C | 63% | 1009.8 hPa | - | - | - | - |
| 1777166401 | 11.11° C | 63% | 1009.3 hPa | - | - | - | - |
| 1777165801 | 11.11° C | 64% | 1009.2 hPa | - | - | - | - |
| 1777165201 | 11.11° C | 63% | 1009.1 hPa | - | - | - | - |
| 1777164601 | 11.11° C | 62% | 1008.8 hPa | - | - | - | - |
| 1777164001 | 11.11° C | 62% | 1009 hPa | - | - | - | - |
| 1777163401 | 11.11° C | 61% | 1008.9 hPa | - | - | - | - |
| 1777162801 | 11.67° C | 59% | 1008.7 hPa | - | - | - | - |
| 1777162201 | 11.67° C | 57% | 1008.7 hPa | - | - | - | - |
| 1777161601 | 12.22° C | 55% | 1008.6 hPa | - | - | - | - |
| 1777161001 | 12.22° C | 53% | 1008.5 hPa | - | - | - | - |
| 1777160401 | 12.78° C | 51% | 1008.5 hPa | - | - | - | - |
| 1777159801 | 12.78° C | 49% | 1008.5 hPa | - | - | - | - |
| 1777159201 | 12.78° C | 48% | 1008.4 hPa | - | - | - | - |
| 1777158601 | 13.33° C | 47% | 1008.1 hPa | - | - | - | - |
| 1777157401 | 12.78° C | 46% | 1008.4 hPa | - | - | - | - |
| 1777156801 | 12.78° C | 46% | 1008.5 hPa | - | - | - | - |
| 1777156201 | 12.78° C | 46% | 1008.4 hPa | - | - | - | - |
* Rain since midnight (hover to see other rain measurements)
** Current wind speed in m/s (hover to see current wind gust speed)